Ce_breeze — ELSQ7 — position and weather

sailwx.info

Track history (hours):
 
Tides and Currents Weather Stations Pressure Air Temp Water Temp Dewpoint Dewpoint Depression Visibility Wind Speed Wind Dir Waves Ship Positions

Ce_breeze

Last reported at 2015-Jan-26 00:23 UTC. Time now 2015-Jan-27 22:59 UTC.
Position N 31°37' E 032°16'.

Length 240 m; draft 6.8 m.

Type: Tanker. MMSI: 636010400.

Date/timePositionNaut miles runAvg speedWind from/ knotsBaromVisibWave heightAir tempDewpointWater temp
2015-Jan-26 00:23N 31°37' E 032°16'0 0.0
2015-Jan-25 23:20N 31°37' E 032°16'0 0.0
2015-Jan-25 16:23N 31°37' E 032°16'0 0.0
2015-Jan-25 15:29N 31°37' E 032°16'0 0.0
2015-Jan-25 14:20N 31°37' E 032°16'0 0.0
2015-Jan-25 12:11N 31°37' E 032°17'  
2015-Jan-22 23:28N 31°37' E 032°17'7 7.5
2015-Jan-22 22:32N 31°30' E 032°17'8 8.6
2015-Jan-22 21:33N 31°21' E 032°18'0 0.1
2015-Jan-22 20:33N 31°21' E 032°18'0 0.0
2015-Jan-22 18:33N 31°21' E 032°18'0 0.1
2015-Jan-22 15:33N 31°21' E 032°18'3 3.5
2015-Jan-22 14:33N 31°25' E 032°19'7 6.7
2015-Jan-22 13:33N 31°32' E 032°19'5 3.7
2015-Jan-22 12:04N 31°37' E 032°19'0 0.2
2015-Jan-22 11:33N 31°37' E 032°18'0 0.0
2015-Jan-22 10:12N 31°37' E 032°18'0 0.0
2015-Jan-22 09:28N 31°37' E 032°19'0 0.0
2015-Jan-22 05:19N 31°37' E 032°19'0 0.1
2015-Jan-22 04:30N 31°37' E 032°19'0 0.0
2015-Jan-22 03:33N 31°37' E 032°19'0 0.0
2015-Jan-22 01:33N 31°37' E 032°19'0 0.0
2015-Jan-21 23:13N 31°37' E 032°18'0 0.0
2015-Jan-21 13:09N 31°37' E 032°19'0 0.0
2015-Jan-21 12:33N 31°37' E 032°19'0 0.0
2015-Jan-21 11:33N 31°37' E 032°19'1 1.1
2015-Jan-21 10:33N 31°38' E 032°19'3 3.2
2015-Jan-21 09:33N 31°41' E 032°21'4 3.6
2015-Jan-21 08:33N 31°44' E 032°23'1 0.6
2015-Jan-21 07:22N 31°45' E 032°23'5 5.1
2015-Jan-21 06:21N 31°40' E 032°20'4 5.0
2015-Jan-21 05:30N 31°36' E 032°18'1 0.8
2015-Jan-21 04:15N 31°37' E 032°17'  
Track history (hours):
 
Tides and Currents Weather Stations Pressure Air Temp Water Temp Dewpoint Dewpoint Depression Visibility Wind Speed Wind Dir Waves Ship Positions

Ce_breeze

Last reported at 2015-Jan-26 00:23 UTC. Time now 2015-Jan-27 22:59 UTC.
Position N 31°37' E 032°16'.

Length 240 m; draft 6.8 m.

Type: Tanker. MMSI: 636010400.

Date/timePositionNaut miles runAvg speedWind from/ knotsBaromVisibWave heightAir tempDewpointWater temp
2015-Jan-26 00:23N 31°37' E 032°16'0 0.0
2015-Jan-25 23:20N 31°37' E 032°16'0 0.0
2015-Jan-25 16:23N 31°37' E 032°16'0 0.0
2015-Jan-25 15:29N 31°37' E 032°16'0 0.0
2015-Jan-25 14:20N 31°37' E 032°16'0 0.0
2015-Jan-25 12:11N 31°37' E 032°17'  
2015-Jan-22 23:28N 31°37' E 032°17'7 7.5
2015-Jan-22 22:32N 31°30' E 032°17'8 8.6
2015-Jan-22 21:33N 31°21' E 032°18'0 0.1
2015-Jan-22 20:33N 31°21' E 032°18'0 0.0
2015-Jan-22 18:33N 31°21' E 032°18'0 0.1
2015-Jan-22 15:33N 31°21' E 032°18'3 3.5
2015-Jan-22 14:33N 31°25' E 032°19'7 6.7
2015-Jan-22 13:33N 31°32' E 032°19'5 3.7
2015-Jan-22 12:04N 31°37' E 032°19'0 0.2
2015-Jan-22 11:33N 31°37' E 032°18'0 0.0
2015-Jan-22 10:12N 31°37' E 032°18'0 0.0
2015-Jan-22 09:28N 31°37' E 032°19'0 0.0
2015-Jan-22 05:19N 31°37' E 032°19'0 0.1
2015-Jan-22 04:30N 31°37' E 032°19'0 0.0
2015-Jan-22 03:33N 31°37' E 032°19'0 0.0
2015-Jan-22 01:33N 31°37' E 032°19'0 0.0
2015-Jan-21 23:13N 31°37' E 032°18'0 0.0
2015-Jan-21 13:09N 31°37' E 032°19'0 0.0
2015-Jan-21 12:33N 31°37' E 032°19'0 0.0
2015-Jan-21 11:33N 31°37' E 032°19'1 1.1
2015-Jan-21 10:33N 31°38' E 032°19'3 3.2
2015-Jan-21 09:33N 31°41' E 032°21'4 3.6
2015-Jan-21 08:33N 31°44' E 032°23'1 0.6
2015-Jan-21 07:22N 31°45' E 032°23'5 5.1
2015-Jan-21 06:21N 31°40' E 032°20'4 5.0
2015-Jan-21 05:30N 31°36' E 032°18'1 0.8
2015-Jan-21 04:15N 31°37' E 032°17'  

Dump ship's entire track history